Time;durP1;ratioP1;P1;durP2;ratioP2;P2;SDS_P1;SDS_P2;PMS_P1;PMS_P2;Temp;Humidity;BMP_temperature;BMP_pressure;BME280_temperature;BME280_humidity;BME280_pressure;Samples;Min_cycle;Max_cycle;Signal;HPM_P1;HPM_P2
2022/07/20 00:02:25;;;;;;;3.92;0.43;;;21.90;18.00;;;;;;5072572;28;20486;-76
2022/07/20 00:04:52;;;;;;;0.17;0.17;;;22.00;16.00;;;;;;5067486;28;20036;-76
2022/07/20 00:07:18;;;;;;;0.35;0.35;;;22.30;14.10;;;;;;5053676;28;20045;-75
2022/07/20 00:12:28;;;;;;;0.20;0.20;;;22.40;11.40;;;;;;5054572;28;20131;-74
2022/07/20 00:14:54;;;;;;;0.08;0.08;;;22.30;12.60;;;;;;5060320;28;20068;-74
2022/07/20 00:17:20;;;;;;;0.70;0.52;;;22.30;11.30;;;;;;5076538;28;20072;-75
2022/07/20 00:19:48;;;;;;;0.20;0.20;;;22.20;13.50;;;;;;5077569;28;20036;-74
2022/07/20 00:22:14;;;;;;;1.92;0.90;;;22.30;12.60;;;;;;5078822;28;20048;-74
2022/07/20 00:24:39;;;;;;;0.10;0.10;;;22.10;12.10;;;;;;5076993;28;20227;-75
2022/07/20 00:27:05;;;;;;;0.32;0.32;;;22.30;12.00;;;;;;5072509;28;20063;-76
2022/07/20 00:29:31;;;;;;;0.45;0.40;;;22.10;13.50;;;;;;5072316;28;20442;-76
2022/07/20 00:31:56;;;;;;;0.45;0.45;;;22.10;13.30;;;;;;5079615;28;20040;-76
2022/07/20 00:34:22;;;;;;;0.13;0.13;;;22.20;11.40;;;;;;5072750;28;20486;-76
2022/07/20 00:36:47;;;;;;;0.10;0.10;;;22.20;17.70;;;;;;5076201;28;20083;-74
2022/07/20 00:39:13;;;;;;;1.45;1.05;;;22.10;18.20;;;;;;5079319;28;20487;-75
2022/07/20 00:41:38;;;;;;;0.00;0.00;;;22.10;19.90;;;;;;5059185;28;20102;-75
2022/07/20 00:44:07;;;;;;;9.65;0.80;;;21.70;19.10;;;;;;5063269;28;20045;-75
2022/07/20 00:46:36;;;;;;;3.45;0.73;;;21.70;18.80;;;;;;5085945;28;20051;-76
2022/07/20 00:49:01;;;;;;;0.20;0.20;;;21.70;18.40;;;;;;5079822;28;20043;-76
2022/07/20 00:51:27;;;;;;;0.70;0.30;;;21.90;17.10;;;;;;5084573;28;20032;-76
2022/07/20 00:53:54;;;;;;;0.98;0.45;;;21.50;21.80;;;;;;5100390;28;20036;-77
2022/07/20 00:56:20;;;;;;;1.95;0.28;;;21.40;25.80;;;;;;5099718;28;20032;-75
2022/07/20 00:58:47;;;;;;;1.30;0.45;;;21.20;25.70;;;;;;5099382;28;20057;-75
2022/07/20 01:01:13;;;;;;;0.47;0.47;;;21.10;28.90;;;;;;5100338;28;20039;-75
2022/07/20 01:03:40;;;;;;;0.77;0.52;;;21.30;24.50;;;;;;5099787;28;20036;-75
2022/07/20 01:06:06;;;;;;;0.52;0.45;;;21.30;23.70;;;;;;5083777;28;20037;-76
2022/07/20 01:08:32;;;;;;;0.85;0.25;;;21.20;22.50;;;;;;5059063;28;20029;-76
2022/07/20 01:10:58;;;;;;;1.65;1.17;;;21.20;24.30;;;;;;5088848;28;20039;-76
2022/07/20 01:13:24;;;;;;;1.25;0.77;;;21.00;25.90;;;;;;5100163;28;20047;-75
2022/07/20 01:15:50;;;;;;;0.10;0.10;;;21.10;24.60;;;;;;5087750;28;20021;-76
2022/07/20 01:18:16;;;;;;;0.03;0.03;;;21.30;22.30;;;;;;5080172;28;20049;-76
2022/07/20 01:20:49;;;;;;;1.25;0.77;;;21.10;24.10;;;;;;5079946;28;20056;-77
2022/07/20 01:23:16;;;;;;;4.03;1.65;;;21.70;22.50;;;;;;5082626;28;20032;-76
2022/07/20 01:25:42;;;;;;;0.00;0.00;;;21.00;32.30;;;;;;5090317;28;20043;-74
2022/07/20 01:28:09;;;;;;;0.15;0.15;;;20.60;33.80;;;;;;5078825;28;20033;-75
2022/07/20 01:30:35;;;;;;;0.30;0.30;;;20.60;31.00;;;;;;5060950;28;20080;-76
2022/07/20 01:33:01;;;;;;;0.20;0.20;;;20.50;36.40;;;;;;5077140;28;20073;-76
2022/07/20 01:35:27;;;;;;;0.10;0.10;;;20.40;35.80;;;;;;5084064;28;20063;-75
2022/07/20 01:37:52;;;;;;;0.70;0.70;;;20.80;33.30;;;;;;5097417;28;20115;-77
2022/07/20 01:40:18;;;;;;;1.13;0.63;;;20.40;37.40;;;;;;5091824;28;20044;-76
2022/07/20 01:42:44;;;;;;;0.10;0.10;;;20.40;35.60;;;;;;5085435;28;20039;-74
2022/07/20 01:45:10;;;;;;;0.10;0.10;;;20.30;38.90;;;;;;5085411;28;20040;-75
2022/07/20 01:47:36;;;;;;;0.60;0.50;;;20.40;35.80;;;;;;5076327;28;20039;-75
2022/07/20 01:50:01;;;;;;;2.83;1.30;;;20.50;37.10;;;;;;5076246;28;20127;-75
2022/07/20 01:52:27;;;;;;;0.20;0.13;;;20.60;34.80;;;;;;5074456;28;20040;-75
2022/07/20 01:54:52;;;;;;;0.00;0.00;;;20.40;41.10;;;;;;5073968;28;20040;-76
2022/07/20 01:57:18;;;;;;;1.23;0.60;;;20.40;41.30;;;;;;5103415;22;20050;-73
2022/07/20 01:59:44;;;;;;;0.68;0.47;;;20.30;43.40;;;;;;5013216;28;20045;-73
2022/07/20 02:02:09;;;;;;;0.38;0.30;;;20.10;46.50;;;;;;5028517;28;20046;-73
2022/07/20 02:04:35;;;;;;;0.55;0.38;;;20.10;47.40;;;;;;5013572;28;20057;-74
2022/07/20 02:07:01;;;;;;;0.30;0.30;;;20.00;55.00;;;;;;5012283;28;20045;-74
2022/07/20 02:09:27;;;;;;;1.02;0.70;;;19.90;53.10;;;;;;5014648;28;20042;-73
2022/07/20 02:11:52;;;;;;;0.08;0.08;;;19.90;58.90;;;;;;5013628;28;20076;-74
2022/07/20 02:14:18;;;;;;;0.30;0.30;;;19.80;58.60;;;;;;5014062;28;20411;-73
2022/07/20 02:16:44;;;;;;;0.80;0.40;;;19.70;75.00;;;;;;5013946;28;20377;-74
2022/07/20 02:19:09;;;;;;;2.45;0.77;;;19.70;63.20;;;;;;5014047;28;20547;-73
2022/07/20 02:21:35;;;;;;;7.90;0.60;;;19.60;68.10;;;;;;5013874;28;20503;-74
2022/07/20 02:24:00;;;;;;;1.00;0.82;;;19.50;71.60;;;;;;5013857;28;20140;-73
2022/07/20 02:26:26;;;;;;;0.43;0.38;;;19.50;68.30;;;;;;5014013;28;20045;-74
2022/07/20 02:28:52;;;;;;;0.82;0.77;;;19.60;65.70;;;;;;5013221;28;20044;-74
2022/07/20 02:31:21;;;;;;;1.45;0.95;;;19.40;76.60;;;;;;5013528;28;20444;-74
2022/07/20 02:33:47;;;;;;;1.13;0.65;;;19.40;66.20;;;;;;5013743;28;20089;-74
2022/07/20 02:36:13;;;;;;;0.13;0.13;;;19.50;64.40;;;;;;5013537;28;20451;-73
2022/07/20 02:38:39;;;;;;;0.10;0.10;;;19.40;69.90;;;;;;5012989;28;20046;-73
2022/07/20 02:41:05;;;;;;;0.40;0.32;;;19.30;75.80;;;;;;5013881;28;20084;-74
2022/07/20 02:43:31;;;;;;;0.63;0.63;;;19.30;68.70;;;;;;5013385;28;20042;-74
2022/07/20 02:45:56;;;;;;;0.00;0.00;;;19.50;62.90;;;;;;5013305;28;20099;-74
2022/07/20 02:48:22;;;;;;;0.57;0.35;;;19.60;64.50;;;;;;5013573;28;20121;-74
2022/07/20 02:50:48;;;;;;;0.10;0.10;;;19.50;61.80;;;;;;5013789;28;20396;-74
2022/07/20 02:53:14;;;;;;;0.10;0.10;;;19.60;56.10;;;;;;5013448;28;20184;-74
2022/07/20 02:55:41;;;;;;;1.63;1.00;;;19.60;55.40;;;;;;5013375;28;20037;-74
2022/07/20 02:58:07;;;;;;;0.80;0.60;;;19.60;63.80;;;;;;5028716;28;20168;-74
2022/07/20 03:00:33;;;;;;;0.68;0.68;;;19.50;66.50;;;;;;5032754;28;20471;-74
2022/07/20 03:02:58;;;;;;;0.28;0.22;;;19.60;56.00;;;;;;5033002;28;20120;-74
2022/07/20 03:05:25;;;;;;;0.28;0.28;;;19.70;57.90;;;;;;5026455;28;20041;-74
2022/07/20 03:07:50;;;;;;;0.45;0.45;;;19.60;55.80;;;;;;5013528;28;20068;-74
2022/07/20 03:10:16;;;;;;;2.85;1.15;;;19.50;59.50;;;;;;5017745;28;20046;-74
2022/07/20 03:12:42;;;;;;;0.82;0.43;;;19.40;57.40;;;;;;5013148;28;20144;-74
2022/07/20 03:15:08;;;;;;;1.27;0.50;;;19.60;54.10;;;;;;5020691;28;20075;-74
2022/07/20 03:17:42;;;;;;;0.95;0.57;;;19.60;53.00;;;;;;5017693;28;20046;-74
2022/07/20 03:20:10;;;;;;;3.53;0.73;;;19.70;50.90;;;;;;5013025;28;20088;-74
2022/07/20 03:22:35;;;;;;;1.15;0.75;;;19.70;48.10;;;;;;5023088;28;20132;-74
2022/07/20 03:25:01;;;;;;;5.57;1.20;;;19.70;46.20;;;;;;5032767;28;20077;-74
2022/07/20 03:27:26;;;;;;;0.15;0.15;;;19.70;48.30;;;;;;5032889;28;20044;-74
2022/07/20 03:29:52;;;;;;;0.63;0.52;;;19.70;43.30;;;;;;5026679;28;20093;-74
2022/07/20 03:32:17;;;;;;;1.98;0.75;;;20.00;40.10;;;;;;5013255;28;20078;-74
2022/07/20 03:34:43;;;;;;;1.55;0.95;;;20.00;40.20;;;;;;5012933;28;20038;-74
2022/07/20 03:37:08;;;;;;;0.40;0.40;;;20.10;38.00;;;;;;5014570;28;20045;-74
2022/07/20 03:39:34;;;;;;;0.10;0.10;;;20.00;40.20;;;;;;5032686;28;20391;-74
2022/07/20 03:42:00;;;;;;;0.50;0.43;;;20.10;38.30;;;;;;5030679;28;20053;-74
2022/07/20 03:44:25;;;;;;;0.20;0.15;;;20.00;38.50;;;;;;5022798;28;20085;-73
2022/07/20 03:46:51;;;;;;;0.77;0.63;;;20.00;39.60;;;;;;5032517;28;20052;-73
2022/07/20 03:49:16;;;;;;;0.28;0.15;;;20.10;37.20;;;;;;5032950;28;20492;-74
2022/07/20 03:51:42;;;;;;;2.38;0.50;;;20.20;35.00;;;;;;5036206;28;20045;-74
2022/07/20 03:54:07;;;;;;;1.40;0.20;;;20.10;34.60;;;;;;5036730;28;20048;-74
2022/07/20 03:56:39;;;;;;;0.15;0.15;;;20.10;33.20;;;;;;5021304;28;20057;-74
2022/07/20 03:59:05;;;;;;;0.20;0.20;;;20.20;31.70;;;;;;5017190;28;20056;-74
2022/07/20 04:01:31;;;;;;;0.60;0.50;;;20.30;30.60;;;;;;5016923;28;20125;-74
2022/07/20 04:03:56;;;;;;;0.85;0.57;;;20.30;30.10;;;;;;5016523;28;20126;-74
2022/07/20 04:06:22;;;;;;;0.20;0.10;;;20.40;29.50;;;;;;5016844;28;20084;-74
2022/07/20 04:08:48;;;;;;;0.30;0.28;;;20.30;34.00;;;;;;5016197;28;20088;-74
2022/07/20 04:11:13;;;;;;;0.95;0.65;;;20.10;36.00;;;;;;5016628;28;20046;-74
2022/07/20 04:13:39;;;;;;;1.13;0.50;;;20.20;36.70;;;;;;5016487;28;20046;-74
2022/07/20 04:16:05;;;;;;;0.57;0.52;;;19.90;44.90;;;;;;5027791;28;20476;-74
2022/07/20 04:18:30;;;;;;;0.63;0.45;;;19.90;46.30;;;;;;5027513;28;20038;-74
2022/07/20 04:20:56;;;;;;;0.43;0.30;;;20.00;58.60;;;;;;5001069;28;20042;-74
2022/07/20 04:23:21;;;;;;;0.77;0.57;;;19.70;73.20;;;;;;4996382;28;20046;-74
2022/07/20 04:25:47;;;;;;;2.85;0.52;;;19.40;73.20;;;;;;5035207;28;20046;-74
2022/07/20 04:28:12;;;;;;;0.13;0.13;;;19.30;81.10;;;;;;5035717;28;20045;-74
2022/07/20 04:30:38;;;;;;;0.30;0.30;;;19.30;85.30;;;;;;5035985;28;20038;-74
2022/07/20 04:33:04;;;;;;;0.20;0.20;;;19.30;89.40;;;;;;5031415;28;20033;-74
2022/07/20 04:35:29;;;;;;;1.23;0.63;;;19.30;92.50;;;;;;5035926;28;20160;-74
2022/07/20 04:37:55;;;;;;;0.50;0.50;;;19.40;94.70;;;;;;5024256;28;20053;-73
2022/07/20 04:40:20;;;;;;;1.35;0.50;;;19.40;91.80;;;;;;5016045;28;20050;-73
2022/07/20 04:42:46;;;;;;;0.57;0.47;;;19.50;92.20;;;;;;5016741;28;20049;-74
2022/07/20 04:45:11;;;;;;;1.35;0.98;;;19.50;93.50;;;;;;5016200;28;20117;-74
2022/07/20 04:47:37;;;;;;;0.63;0.47;;;19.80;66.60;;;;;;5020076;28;20505;-74
2022/07/20 04:50:03;;;;;;;0.10;0.10;;;20.10;61.60;;;;;;5035370;28;20068;-74
2022/07/20 04:52:29;;;;;;;0.35;0.10;;;20.40;55.40;;;;;;5022791;28;20034;-74
2022/07/20 04:54:54;;;;;;;0.38;0.30;;;21.00;40.00;;;;;;5015435;28;20048;-74
2022/07/20 04:57:20;;;;;;;0.40;0.20;;;21.70;30.60;;;;;;5015569;28;20061;-74
2022/07/20 04:59:45;;;;;;;0.20;0.20;;;22.50;27.90;;;;;;5015442;28;20049;-74
2022/07/20 05:02:11;;;;;;;0.10;0.10;;;23.20;24.40;;;;;;5016168;28;20072;-74
2022/07/20 05:04:36;;;;;;;0.20;0.20;;;24.00;19.50;;;;;;5015550;28;20049;-74
2022/07/20 05:07:02;;;;;;;2.10;0.60;;;24.50;7.00;;;;;;5015584;28;20038;-75
2022/07/20 05:09:28;;;;;;;0.38;0.38;;;25.10;11.90;;;;;;5015443;28;20072;-74
2022/07/20 05:11:53;;;;;;;0.63;0.32;;;25.50;4.60;;;;;;5012508;28;20073;-74
2022/07/20 05:14:19;;;;;;;0.93;0.50;;;25.60;10.60;;;;;;5012849;28;20141;-75
2022/07/20 05:16:45;;;;;;;0.17;0.17;;;25.90;4.00;;;;;;5024695;28;20034;-75
2022/07/20 05:19:11;;;;;;;1.17;0.43;;;26.20;3.70;;;;;;5032453;28;20090;-74
2022/07/20 05:21:37;;;;;;;0.25;0.22;;;26.70;5.60;;;;;;5032337;28;20174;-75
2022/07/20 05:24:02;;;;;;;0.10;0.03;;;27.00;1.00;;;;;;5027845;28;20160;-74
2022/07/20 05:26:28;;;;;;;0.30;0.20;;;27.50;1.00;;;;;;5024975;28;20151;-75
2022/07/20 05:28:54;;;;;;;0.60;0.30;;;27.90;1.00;;;;;;5012778;28;20033;-75
2022/07/20 05:31:19;;;;;;;0.20;0.20;;;28.00;1.00;;;;;;5035352;28;20060;-74
2022/07/20 05:33:45;;;;;;;0.30;0.30;;;28.30;1.00;;;;;;5036336;28;20049;-75
2022/07/20 05:36:10;;;;;;;0.30;0.20;;;28.70;1.00;;;;;;5036474;28;20404;-74
2022/07/20 05:38:36;;;;;;;1.95;1.17;;;29.10;1.00;;;;;;5035498;28;20037;-75
2022/07/20 05:41:02;;;;;;;0.15;0.15;;;29.50;1.00;;;;;;5035327;28;20123;-75
2022/07/20 05:43:27;;;;;;;0.10;0.03;;;29.90;1.00;;;;;;5036725;28;20100;-74
2022/07/20 05:45:53;;;;;;;0.22;0.20;;;30.20;1.00;;;;;;5035556;28;20055;-74
2022/07/20 05:48:19;;;;;;;0.30;0.30;;;30.30;1.00;;;;;;5036373;28;20091;-73
2022/07/20 05:50:45;;;;;;;0.32;0.25;;;30.30;1.00;;;;;;5036001;28;20080;-73
2022/07/20 05:53:11;;;;;;;0.40;0.30;;;30.60;1.00;;;;;;5035803;28;20071;-73
2022/07/20 05:55:38;;;;;;;0.30;0.25;;;30.90;1.00;;;;;;5035749;28;20049;-73
2022/07/20 05:58:05;;;;;;;0.00;0.00;;;31.00;1.00;;;;;;5036076;28;20085;-75
2022/07/20 06:00:32;;;;;;;2.30;0.98;;;31.10;1.00;;;;;;5036350;28;20060;-75
2022/07/20 06:02:58;;;;;;;0.85;0.60;;;31.20;1.00;;;;;;5035834;28;20080;-75
2022/07/20 06:05:24;;;;;;;0.20;0.20;;;31.50;1.00;;;;;;5034354;28;20046;-75
2022/07/20 06:07:50;;;;;;;3.95;0.68;;;31.50;1.00;;;;;;5034954;28;20443;-75
2022/07/20 06:10:15;;;;;;;0.43;0.15;;;32.00;1.00;;;;;;5035047;28;20116;-75
2022/07/20 06:12:41;;;;;;;0.20;0.10;;;32.10;1.00;;;;;;5034873;28;20136;-75
2022/07/20 06:15:07;;;;;;;1.45;0.60;;;32.30;1.00;;;;;;5036198;28;20072;-75
2022/07/20 06:17:37;;;;;;;0.22;0.17;;;32.40;1.00;;;;;;5035947;28;20091;-75
2022/07/20 06:20:05;;;;;;;0.30;0.30;;;32.40;1.00;;;;;;5035417;28;20083;-75
2022/07/20 06:22:31;;;;;;;0.28;0.20;;;32.70;1.00;;;;;;5025721;28;20053;-75
2022/07/20 06:24:57;;;;;;;0.68;0.47;;;32.70;1.00;;;;;;5013683;28;20444;-73
2022/07/20 06:27:23;;;;;;;1.63;0.80;;;32.60;1.00;;;;;;5013869;28;20095;-73
2022/07/20 06:29:48;;;;;;;0.75;0.47;;;32.80;1.00;;;;;;5014741;28;20561;-73
2022/07/20 06:32:14;;;;;;;0.45;0.35;;;32.90;1.00;;;;;;5014533;28;20128;-73
2022/07/20 06:34:39;;;;;;;2.08;0.85;;;33.00;1.00;;;;;;5014853;28;20038;-76
2022/07/20 06:37:05;;;;;;;1.55;0.47;;;33.00;1.00;;;;;;5014033;28;20515;-73
2022/07/20 06:39:30;;;;;;;0.10;0.10;;;33.10;1.00;;;;;;5014855;28;20057;-74
2022/07/20 06:41:56;;;;;;;0.20;0.20;;;33.40;1.00;;;;;;5015310;28;20049;-74
2022/07/20 06:44:22;;;;;;;1.48;0.93;;;33.50;1.00;;;;;;5015185;28;20152;-74
2022/07/20 06:46:47;;;;;;;0.40;0.40;;;33.80;1.00;;;;;;5015080;28;20127;-74
2022/07/20 06:49:14;;;;;;;0.85;0.65;;;34.10;1.00;;;;;;5015465;28;20127;-74
2022/07/20 06:51:40;;;;;;;0.55;0.28;;;33.90;1.00;;;;;;5015450;28;20050;-75
2022/07/20 06:54:06;;;;;;;0.32;0.15;;;33.80;1.00;;;;;;5015231;28;20397;-74
2022/07/20 06:56:31;;;;;;;0.55;0.50;;;33.60;1.00;;;;;;5015413;28;20466;-74
2022/07/20 06:58:57;;;;;;;0.20;0.20;;;34.00;1.00;;;;;;5015099;28;20496;-74
2022/07/20 07:01:22;;;;;;;0.47;0.25;;;34.10;1.00;;;;;;5014931;28;20050;-74
2022/07/20 07:03:48;;;;;;;1.08;0.32;;;34.10;1.00;;;;;;5013901;28;20077;-74
2022/07/20 07:06:14;;;;;;;0.05;0.05;;;34.30;1.00;;;;;;5014816;28;20116;-74
2022/07/20 07:08:39;;;;;;;0.50;0.32;;;34.20;1.00;;;;;;5014861;28;20045;-74
2022/07/20 07:11:05;;;;;;;0.28;0.20;;;34.20;1.00;;;;;;5014028;28;20042;-74
2022/07/20 07:13:31;;;;;;;0.47;0.40;;;34.30;1.00;;;;;;5016450;28;20045;-74
2022/07/20 07:15:56;;;;;;;1.02;0.63;;;34.00;1.00;;;;;;5017067;28;20089;-73
2022/07/20 07:18:22;;;;;;;0.80;0.52;;;33.90;1.00;;;;;;5017168;28;20053;-74
2022/07/20 07:20:47;;;;;;;0.75;0.43;;;34.00;1.00;;;;;;5016615;28;20045;-74
2022/07/20 07:23:13;;;;;;;1.92;0.85;;;33.90;1.00;;;;;;5017087;28;20104;-75
2022/07/20 07:25:38;;;;;;;0.80;0.60;;;33.90;1.00;;;;;;5017061;28;20042;-74
2022/07/20 07:28:04;;;;;;;0.10;0.10;;;34.00;1.00;;;;;;5017748;28;20048;-74
2022/07/20 07:30:29;;;;;;;0.73;0.50;;;34.00;1.00;;;;;;5012938;28;20069;-74
2022/07/20 07:32:55;;;;;;;3.65;1.00;;;34.20;1.00;;;;;;5009921;28;20045;-73
2022/07/20 07:35:20;;;;;;;1.10;0.60;;;34.40;1.00;;;;;;5009674;28;20493;-73
2022/07/20 07:37:46;;;;;;;3.20;1.50;;;34.60;1.00;;;;;;5009362;28;20393;-73
2022/07/20 07:40:12;;;;;;;1.10;0.65;;;34.40;1.00;;;;;;5009780;28;20042;-73
2022/07/20 07:42:38;;;;;;;2.20;1.27;;;34.40;1.00;;;;;;5009593;28;20108;-73
2022/07/20 07:45:06;;;;;;;3.83;1.80;;;34.50;1.00;;;;;;5009783;28;20095;-73
2022/07/20 07:47:33;;;;;;;0.82;0.60;;;34.70;1.00;;;;;;5011366;28;20428;-75
2022/07/20 07:49:59;;;;;;;2.28;0.90;;;34.90;1.00;;;;;;5015429;28;20052;-76
2022/07/20 07:52:25;;;;;;;1.27;0.80;;;35.00;1.00;;;;;;5014099;28;20042;-74
2022/07/20 07:54:50;;;;;;;4.18;0.55;;;35.10;1.00;;;;;;5016742;28;20049;-74
2022/07/20 07:57:16;;;;;;;0.30;0.20;;;35.10;1.00;;;;;;5014661;28;20065;-74
2022/07/20 07:59:42;;;;;;;0.65;0.60;;;35.10;1.00;;;;;;5013908;28;20056;-74
2022/07/20 08:02:08;;;;;;;7.88;1.13;;;35.50;1.00;;;;;;5015855;28;20046;-74
2022/07/20 08:04:34;;;;;;;1.13;1.00;;;35.90;1.00;;;;;;5030186;28;20042;-74
2022/07/20 08:06:59;;;;;;;0.38;0.35;;;35.80;1.00;;;;;;5014460;28;20420;-73
2022/07/20 08:09:25;;;;;;;0.10;0.10;;;35.50;1.00;;;;;;5021326;28;20041;-74
2022/07/20 08:11:51;;;;;;;0.10;0.10;;;35.50;1.00;;;;;;5024824;28;20052;-73
2022/07/20 08:14:17;;;;;;;1.30;1.13;;;35.40;1.00;;;;;;5016127;28;20073;-73
2022/07/20 08:16:42;;;;;;;1.88;0.82;;;35.40;1.00;;;;;;5015183;28;20050;-74
2022/07/20 08:19:08;;;;;;;0.45;0.28;;;35.10;1.00;;;;;;5016236;28;20045;-74
2022/07/20 08:21:34;;;;;;;4.70;1.92;;;35.20;1.00;;;;;;5016111;28;20054;-73
2022/07/20 08:23:59;;;;;;;1.65;1.08;;;35.00;1.00;;;;;;5017711;28;20049;-74
2022/07/20 08:26:25;;;;;;;1.23;0.65;;;34.70;1.00;;;;;;5016660;28;20053;-73
2022/07/20 08:28:50;;;;;;;1.30;0.60;;;35.00;1.00;;;;;;5015777;28;20038;-74
2022/07/20 08:31:16;;;;;;;1.58;0.85;;;35.00;1.00;;;;;;5018544;28;20175;-74
2022/07/20 08:33:41;;;;;;;1.55;1.20;;;35.30;1.00;;;;;;5016217;28;20050;-74
2022/07/20 08:36:07;;;;;;;3.30;1.40;;;35.40;1.00;;;;;;5016606;28;20049;-74
2022/07/20 08:38:33;;;;;;;1.95;1.35;;;35.30;1.00;;;;;;5020219;28;20038;-74
2022/07/20 08:40:58;;;;;;;1.48;1.05;;;35.30;1.00;;;;;;5018622;28;20042;-74
2022/07/20 08:43:24;;;;;;;0.95;0.88;;;35.40;1.00;;;;;;5019172;28;20038;-74
2022/07/20 08:45:50;;;;;;;2.33;1.67;;;35.00;1.00;;;;;;5019049;28;20096;-74
2022/07/20 08:48:18;;;;;;;2.95;1.92;;;34.90;1.00;;;;;;5018833;28;20088;-74
2022/07/20 08:50:45;;;;;;;2.38;1.65;;;35.10;1.00;;;;;;5018687;28;20046;-74
2022/07/20 08:53:11;;;;;;;3.28;2.17;;;35.30;1.00;;;;;;5020803;28;20463;-74
2022/07/20 08:55:36;;;;;;;2.53;1.83;;;35.10;1.00;;;;;;5017678;28;20080;-74
2022/07/20 08:58:02;;;;;;;2.58;2.03;;;35.00;1.00;;;;;;5018783;28;20575;-74
2022/07/20 09:00:28;;;;;;;1.95;1.65;;;35.00;1.00;;;;;;5021157;28;20050;-74
2022/07/20 09:03:03;;;;;;;4.30;2.20;;;34.70;1.00;;;;;;5022830;28;20038;-74
2022/07/20 09:05:34;;;;;;;3.40;2.10;;;34.30;1.00;;;;;;5022988;28;20077;-74
2022/07/20 09:08:00;;;;;;;4.22;2.25;;;33.90;1.00;;;;;;5022848;28;20046;-74
2022/07/20 09:10:35;;;;;;;7.28;2.00;;;34.00;1.00;;;;;;5028651;28;20037;-74
2022/07/20 09:13:00;;;;;;;4.13;2.00;;;34.20;1.00;;;;;;5029731;28;20052;-74
2022/07/20 09:15:41;;;;;;;2.22;1.63;;;34.50;1.00;;;;;;5028036;28;20069;-74
2022/07/20 09:18:17;;;;;;;2.78;2.30;;;34.60;1.00;;;;;;5029606;28;20037;-74
2022/07/20 09:20:55;;;;;;;6.47;2.47;;;34.60;1.00;;;;;;5026259;28;20510;-75
2022/07/20 09:23:41;;;;;;;2.58;1.75;;;34.30;1.00;;;;;;5027499;28;20038;-74
2022/07/20 09:26:09;;;;;;;5.97;3.20;;;34.00;1.00;;;;;;5019783;28;20079;-74
2022/07/20 09:28:39;;;;;;;3.08;2.35;;;34.10;1.00;;;;;;5026225;28;20049;-74
2022/07/20 09:31:17;;;;;;;4.40;2.42;;;34.10;1.00;;;;;;5025302;28;20046;-74
2022/07/20 09:33:53;;;;;;;7.72;3.25;;;34.10;1.00;;;;;;5025252;28;20134;-74
2022/07/20 09:36:22;;;;;;;4.78;3.33;;;34.10;1.00;;;;;;5026921;28;20042;-73
2022/07/20 09:38:48;;;;;;;3.97;2.88;;;33.80;1.00;;;;;;5028351;28;20045;-74
2022/07/20 09:41:29;;;;;;;3.00;2.00;;;34.10;1.00;;;;;;5027086;28;20092;-73
2022/07/20 09:43:57;;;;;;;4.25;3.28;;;34.00;1.00;;;;;;5027311;28;20045;-74
2022/07/20 09:46:27;;;;;;;5.25;2.97;;;33.60;1.00;;;;;;5026515;28;20504;-74
2022/07/20 09:48:58;;;;;;;4.28;3.05;;;33.30;1.00;;;;;;5027844;28;20069;-74
2022/07/20 09:51:33;;;;;;;4.32;2.53;;;33.00;1.00;;;;;;5028117;28;20064;-74
2022/07/20 09:54:05;;;;;;;3.10;2.08;;;32.60;1.00;;;;;;5024618;28;20563;-74
2022/07/20 09:56:33;;;;;;;14.50;2.70;;;32.50;1.00;;;;;;5025617;28;20050;-73
2022/07/20 09:59:04;;;;;;;7.03;3.03;;;32.50;1.00;;;;;;5026018;28;20053;-74
2022/07/20 10:01:31;;;;;;;2.15;1.95;;;32.40;1.00;;;;;;5024975;28;20523;-74
2022/07/20 10:03:59;;;;;;;5.50;2.95;;;32.40;1.00;;;;;;5026440;28;20038;-73
2022/07/20 10:06:26;;;;;;;3.70;2.80;;;32.20;1.00;;;;;;5024872;28;20033;-74
2022/07/20 10:08:52;;;;;;;4.95;2.53;;;31.90;1.00;;;;;;5023620;28;20065;-74
2022/07/20 10:11:20;;;;;;;5.50;2.92;;;31.90;1.00;;;;;;5025003;28;20094;-74
2022/07/20 10:13:48;;;;;;;5.03;3.05;;;31.80;1.00;;;;;;5026376;28;20120;-74
2022/07/20 10:16:28;;;;;;;4.43;2.53;;;31.70;1.00;;;;;;5025582;28;20077;-74
2022/07/20 10:18:56;;;;;;;3.55;2.55;;;31.50;1.00;;;;;;5025550;28;20060;-74
2022/07/20 10:21:37;;;;;;;9.63;3.92;;;31.50;1.00;;;;;;5023474;28;20038;-73
2022/07/20 10:24:15;;;;;;;5.78;3.60;;;31.70;1.00;;;;;;5022575;28;20046;-74
2022/07/20 10:26:41;;;;;;;1.20;1.10;;;31.90;1.00;;;;;;5024782;28;20050;-74
2022/07/20 10:29:06;;;;;;;4.50;2.75;;;31.90;1.00;;;;;;5022767;28;20054;-74
2022/07/20 10:31:49;;;;;;;5.55;2.53;;;32.10;1.00;;;;;;5021718;28;20489;-74
2022/07/20 10:34:37;;;;;;;1.77;1.50;;;32.00;1.00;;;;;;5022634;28;20056;-73
2022/07/20 10:37:29;;;;;;;3.42;2.00;;;31.90;1.00;;;;;;5024208;28;20053;-74
2022/07/20 10:40:03;;;;;;;4.40;2.67;;;32.10;1.00;;;;;;5021982;28;20080;-74
2022/07/20 10:42:34;;;;;;;2.70;2.15;;;32.30;1.00;;;;;;5022188;28;20052;-74
2022/07/20 10:45:20;;;;;;;3.08;2.13;;;31.90;1.00;;;;;;5021221;28;20042;-74
2022/07/20 10:47:49;;;;;;;2.83;2.08;;;31.90;1.00;;;;;;5019581;28;20076;-73
2022/07/20 10:50:27;;;;;;;2.40;1.83;;;32.00;1.00;;;;;;5019451;28;20516;-75
2022/07/20 10:52:59;;;;;;;4.03;2.55;;;32.20;1.00;;;;;;5021171;28;20046;-74
2022/07/20 10:55:36;;;;;;;3.55;1.48;;;32.10;1.00;;;;;;5021248;28;20525;-74
2022/07/20 10:58:03;;;;;;;3.35;1.77;;;32.20;1.00;;;;;;5020236;28;20065;-73
2022/07/20 11:00:30;;;;;;;1.05;0.95;;;32.10;1.00;;;;;;5021459;28;20049;-74
2022/07/20 11:02:57;;;;;;;1.23;0.82;;;32.10;1.00;;;;;;5020596;28;20064;-73
2022/07/20 11:05:23;;;;;;;1.05;0.90;;;32.20;1.00;;;;;;5020095;28;20045;-74
2022/07/20 11:07:49;;;;;;;25.13;1.90;;;32.20;1.00;;;;;;5018825;28;20176;-74
2022/07/20 11:10:24;;;;;;;3.03;1.55;;;31.90;1.00;;;;;;5018750;28;20060;-74
2022/07/20 11:12:58;;;;;;;2.25;1.77;;;32.40;1.00;;;;;;5018253;28;20070;-74
2022/07/20 11:15:45;;;;;;;4.35;1.98;;;32.30;1.00;;;;;;5019546;28;20049;-74
2022/07/20 11:18:13;;;;;;;2.67;1.67;;;32.50;1.00;;;;;;5016233;28;20107;-74
2022/07/20 11:20:51;;;;;;;1.55;1.27;;;32.90;1.00;;;;;;5016955;28;20096;-73
2022/07/20 11:23:20;;;;;;;1.05;0.85;;;33.40;1.00;;;;;;5016852;28;20053;-74
2022/07/20 11:25:54;;;;;;;5.78;2.72;;;33.80;1.00;;;;;;5016750;28;20048;-74
2022/07/20 11:28:23;;;;;;;1.60;1.23;;;34.20;1.00;;;;;;5017264;28;20045;-74
2022/07/20 11:30:51;;;;;;;3.00;1.25;;;34.50;1.00;;;;;;5017140;28;20393;-74
2022/07/20 11:33:26;;;;;;;1.95;1.50;;;34.90;1.00;;;;;;5018052;28;20048;-74
2022/07/20 11:35:54;;;;;;;1.45;1.10;;;35.40;1.00;;;;;;5018644;28;20046;-74
2022/07/20 11:38:19;;;;;;;1.63;0.85;;;35.80;1.00;;;;;;5019419;28;20083;-72
2022/07/20 11:40:59;;;;;;;1.50;0.77;;;35.90;1.00;;;;;;5018722;28;20038;-72
2022/07/20 11:43:25;;;;;;;3.83;1.10;;;35.80;1.00;;;;;;5019946;28;20049;-73
2022/07/20 11:45:51;;;;;;;3.20;1.63;;;35.70;1.00;;;;;;5018578;28;20193;-74
2022/07/20 11:48:22;;;;;;;0.40;0.40;;;35.80;1.00;;;;;;5017853;28;20101;-74
2022/07/20 11:50:48;;;;;;;1.45;1.02;;;35.70;1.00;;;;;;5016684;28;20493;-74
2022/07/20 11:53:28;;;;;;;4.38;1.75;;;36.00;1.00;;;;;;5018758;28;20041;-74
2022/07/20 11:55:56;;;;;;;3.17;1.55;;;36.20;1.00;;;;;;5018460;28;20053;-74
2022/07/20 11:58:42;;;;;;;7.82;2.15;;;36.40;1.00;;;;;;5019921;28;20053;-74
2022/07/20 12:01:10;;;;;;;0.82;0.68;;;36.20;1.00;;;;;;5017768;28;20049;-74
2022/07/20 12:03:41;;;;;;;3.60;1.88;;;36.30;1.00;;;;;;5017420;28;20049;-74
2022/07/20 12:06:12;;;;;;;1.55;0.63;;;35.90;1.00;;;;;;5018124;28;20073;-74
2022/07/20 12:08:39;;;;;;;1.15;1.05;;;36.00;1.00;;;;;;5017328;28;20132;-74
2022/07/20 12:11:06;;;;;;;2.05;1.20;;;35.80;1.00;;;;;;5019100;28;20046;-74
2022/07/20 12:13:47;;;;;;;2.25;1.33;;;35.60;1.00;;;;;;5020014;28;20053;-74
2022/07/20 12:16:13;;;;;;;1.27;0.98;;;36.10;1.00;;;;;;5019279;28;20050;-74
2022/07/20 12:18:44;;;;;;;2.50;1.00;;;37.30;1.00;;;;;;5024093;28;20046;-74
2022/07/20 12:21:16;;;;;;;1.88;1.02;;;36.80;1.00;;;;;;5023883;28;20088;-76
2022/07/20 12:23:44;;;;;;;1.15;1.05;;;36.90;1.00;;;;;;5022430;28;20383;-73
2022/07/20 12:26:30;;;;;;;1.58;1.00;;;37.00;1.00;;;;;;5020512;28;20224;-74
2022/07/20 12:29:17;;;;;;;1.05;0.85;;;37.00;1.00;;;;;;5021386;28;20437;-74
2022/07/20 12:31:43;;;;;;;2.92;1.48;;;37.50;1.00;;;;;;5020691;28;20056;-74
2022/07/20 12:34:11;;;;;;;6.25;1.55;;;37.00;1.00;;;;;;5023450;28;20045;-75
2022/07/20 12:36:56;;;;;;;2.58;1.55;;;37.20;1.00;;;;;;5021000;28;20053;-73
2022/07/20 12:39:43;;;;;;;2.30;0.73;;;36.80;1.00;;;;;;5020485;28;20045;-74
2022/07/20 12:42:15;;;;;;;1.50;0.70;;;37.60;1.00;;;;;;5021020;28;20045;-74
2022/07/20 12:44:42;;;;;;;2.90;1.52;;;37.20;1.00;;;;;;5021699;28;20041;-74
2022/07/20 12:47:09;;;;;;;1.90;1.17;;;37.40;1.00;;;;;;5022616;28;20077;-74
2022/07/20 12:49:35;;;;;;;4.63;1.17;;;37.20;1.00;;;;;;5020824;28;20089;-74
2022/07/20 12:52:01;;;;;;;3.55;1.10;;;37.70;1.00;;;;;;5021297;28;20097;-74
2022/07/20 12:54:26;;;;;;;0.90;0.80;;;38.20;1.00;;;;;;5021183;28;20531;-74
2022/07/20 12:56:53;;;;;;;1.15;0.85;;;38.40;1.00;;;;;;5017800;28;20411;-72
2022/07/20 12:59:19;;;;;;;1.10;1.00;;;38.40;1.00;;;;;;5018431;28;20034;-74